»·PEaware :: DLH8813 KSNA-KSNA

DLH8813 :: KSNA-KSNA

FLIGHT INFORMATION

Flight Status: Arrived
Operator:
Lufthansa
More flights by this operator :: More flights under this callsign
Pilot: Jamil R. (13286)
Aircraft: AIRBUS A320
(A320)
More flights by this aircraft type
Origin: KSNA John Wayne-Orange Co
United States
Destination: KSNA John Wayne-Orange Co
United States
More flights between these airports :: More routes between these airports
Route: +SLI
File this flight plan on PilotEdge
Remarks: To practise some IFR flying a bigger “traffic circuit”. Hope, will not have an issue with transponder on ground again.
Altitude:
(Current/Filed)
12,000ft
Speed:
(Current/Filed)
340kts
Departed: 13-Jan-18 04:50 PM
Arrived: 13-Jan-18 05:08 PM
Distance/Time
Traveled:
0nm/0:18
Distance/Time
To Go:
Arrived

Flight Plot

Page will automatically refresh every two minutes.


Map Options




Map Legend


Flown Route
Filed Route
Departure Airport
Arrival Airport
Navaid (VOR, NDB)
Fix

Horizontal Profiles

Position Reports

Time Latitude Longitude Heading Altitude Ground
Speed
13-Jan-18 16:21 33.675051 -117.865084 117 65ft 0kts
13-Jan-18 16:22 33.675051 -117.865084 117 65ft 0kts
13-Jan-18 16:23 33.675051 -117.865084 117 65ft 0kts
13-Jan-18 16:24 33.675051 -117.865084 117 65ft 0kts
13-Jan-18 16:25 33.675051 -117.865084 117 65ft 0kts
13-Jan-18 16:26 33.675051 -117.865084 117 65ft 0kts
13-Jan-18 16:27 33.675051 -117.865084 117 65ft 0kts
13-Jan-18 16:28 33.675051 -117.865084 117 65ft 0kts
13-Jan-18 16:29 33.675051 -117.865084 117 65ft 0kts
13-Jan-18 16:30 33.675051 -117.865084 117 65ft 0kts
13-Jan-18 16:31 33.675051 -117.865084 117 65ft 0kts
13-Jan-18 16:32 33.675051 -117.865084 117 65ft 0kts
13-Jan-18 16:33 33.675051 -117.865084 117 65ft 0kts
13-Jan-18 16:34 33.675051 -117.865084 117 65ft 0kts
13-Jan-18 16:35 33.675051 -117.865084 117 65ft 0kts
13-Jan-18 16:36 33.675051 -117.865084 117 65ft 0kts
13-Jan-18 16:37 33.675051 -117.865084 117 65ft 0kts
13-Jan-18 16:38 33.675051 -117.865084 117 65ft 0kts
13-Jan-18 16:39 33.675051 -117.865084 117 65ft 0kts
13-Jan-18 16:40 33.675051 -117.865084 117 65ft 0kts
13-Jan-18 16:41 33.675051 -117.865084 117 65ft 0kts
13-Jan-18 16:42 33.675051 -117.865084 117 65ft 0kts
13-Jan-18 16:43 33.675051 -117.865084 117 65ft 0kts
13-Jan-18 16:44 33.675051 -117.865084 117 65ft 0kts
13-Jan-18 16:45 33.675140 -117.865293 116 65ft 0kts
13-Jan-18 16:46 33.675041 -117.865890 35 65ft 2kts
13-Jan-18 16:47 33.674951 -117.865950 26 65ft 0kts
13-Jan-18 16:48 33.674951 -117.865950 26 65ft 0kts
13-Jan-18 16:49 33.674951 -117.865950 26 65ft 0kts
13-Jan-18 16:50 33.677380 -117.864442 28 65ft 15kts
13-Jan-18 16:51 33.680460 -117.862742 325 65ft 5kts
13-Jan-18 16:52 33.681148 -117.864235 297 65ft 0kts
13-Jan-18 16:53 33.681148 -117.864235 297 65ft 0kts
13-Jan-18 16:54 33.681257 -117.864490 297 65ft 6kts
13-Jan-18 16:55 33.680665 -117.865693 207 65ft 35kts
13-Jan-18 16:56 33.639870 -117.881722 187 2418ft 211kts
13-Jan-18 16:57 33.570788 -117.891422 187 4987ft 270kts
13-Jan-18 16:58 33.496917 -117.893926 152 5032ft 273kts
13-Jan-18 16:59 33.487793 -117.815453 42 5032ft 281kts
13-Jan-18 17:00 33.552668 -117.763722 32 5045ft 280kts
13-Jan-18 17:01 33.618437 -117.713319 32 5059ft 287kts
13-Jan-18 17:02 33.686094 -117.663424 32 5071ft 283kts
13-Jan-18 17:03 33.753156 -117.616509 32 5072ft 274kts
13-Jan-18 17:04 33.813871 -117.574160 32 5083ft 226kts
13-Jan-18 17:05 33.860810 -117.588352 303 5092ft 200kts
13-Jan-18 17:06 33.887685 -117.648097 301 5060ft 210kts
13-Jan-18 17:07 33.908215 -117.713148 247 5001ft 215kts
13-Jan-18 17:08 33.872540 -117.767706 191 4236ft 203kts
13-Jan-18 17:09 33.818082 -117.779373 201 3157ft 204kts
13-Jan-18 17:10 33.773433 -117.806022 204 2089ft 152kts
13-Jan-18 17:11 33.739061 -117.828788 206 1290ft 128kts
13-Jan-18 17:12 33.706898 -117.849071 205 712ft 137kts
13-Jan-18 17:13 33.676802 -117.868055 207 65ft 93kts
13-Jan-18 17:14 33.669479 -117.871956 146 65ft 2kts
13-Jan-18 17:15 33.669599 -117.870459 39 65ft 10kts
13-Jan-18 17:16 33.672865 -117.867546 42 65ft 17kts
13-Jan-18 17:17 33.675808 -117.865354 39 65ft 9kts
13-Jan-18 17:18 33.675733 -117.864673 121 65ft 1kts
13-Jan-18 17:19 33.675717 -117.864641 121 65ft 0kts
13-Jan-18 17:20 33.675717 -117.864641 121 65ft 0kts
13-Jan-18 17:21 33.675717 -117.864641 121 65ft 0kts
13-Jan-18 17:22 33.675717 -117.864641 121 65ft 0kts
13-Jan-18 17:23 33.675717 -117.864641 121 65ft 0kts
13-Jan-18 17:24 33.675717 -117.864641 121 65ft 0kts
13-Jan-18 17:25 33.675717 -117.864641 121 65ft 0kts
13-Jan-18 17:26 33.675717 -117.864641 121 65ft 0kts
13-Jan-18 17:27 33.675717 -117.864641 121 65ft 0kts
13-Jan-18 17:28 33.675717 -117.864641 121 65ft 0kts

Navigation Log

Ident Type
1. KSNA Airport
2. SLI Navaid
3. KSNA Airport